Fivea — 2FNO8 — position and weather

sailwx.info

Track history (hours):
 
Tides and Currents Weather Stations Pressure Air Temp Water Temp Dewpoint Dewpoint Depression Visibility Wind Speed Wind Dir Waves Ship Positions

Fivea

Last reported at 2017-Jun-18 09:33 UTC. Time now 2017-Jun-27 07:00 UTC.
Position N 37°48' E 023°46'.
Warning: this ship's position is 8 days out of date.

Length 45 m; draft 3.8 m.

Type: Other ship. MMSI: 235092742.

Date/timePositionNaut miles runAvg speedWind from/ knotsBaromVisibWave heightAir tempDewpointWater temp
2017-Jun-18 09:33N 37°48' E 023°46'0 0.4
2017-Jun-18 09:30N 37°48' E 023°46'4 8.8
2017-Jun-18 09:01N 37°45' E 023°49'612.4
2017-Jun-18 08:30N 37°39' E 023°54'4 0.1
2017-Jun-16 09:19N 37°37' E 023°58'413.0
2017-Jun-16 09:00N 37°40' E 023°55'612.8
2017-Jun-16 08:30N 37°45' E 023°50'4 7.6
2017-Jun-16 07:56N 37°48' E 023°46'0 0.0
2017-Jun-16 07:29N 37°48' E 023°46'0 0.0
2017-Jun-16 06:59N 37°48' E 023°46'0 0.0
2017-Jun-16 06:29N 37°48' E 023°46'0 0.0
2017-Jun-16 05:59N 37°48' E 023°46'  
2017-Jun-11 21:09N 37°48' E 023°46'0 0.0
2017-Jun-11 20:57N 37°48' E 023°46'2 3.6
2017-Jun-11 20:31N 37°47' E 023°48'612.6
2017-Jun-11 20:00N 37°42' E 023°53'1012.2
2017-Jun-11 19:13N 37°36' E 024°02'712.7
2017-Jun-11 18:40N 37°33' E 024°10'2812.5
2017-Jun-11 16:25N 37°24' E 024°44'512.6
2017-Jun-11 16:01N 37°22' E 024°50'612.6
2017-Jun-11 15:31N 37°21' E 024°58'713.2
2017-Jun-11 15:01N 37°21' E 025°06'713.0
2017-Jun-11 14:30N 37°22' E 025°14'5 5.0
2017-Jun-11 13:28N 37°25' E 025°19'0 0.0
2017-Jun-11 12:58N 37°25' E 025°19'0 0.0
2017-Jun-11 12:28N 37°25' E 025°19'0 0.0
2017-Jun-11 11:58N 37°25' E 025°19'0 0.0
2017-Jun-11 11:25N 37°25' E 025°19'0 0.0
2017-Jun-11 10:58N 37°25' E 025°19'0 0.0
2017-Jun-11 10:28N 37°25' E 025°19'0 0.0
2017-Jun-11 09:58N 37°25' E 025°19'0 0.0
2017-Jun-11 09:28N 37°25' E 025°19'0 0.0
2017-Jun-11 08:58N 37°25' E 025°19'0 0.0
2017-Jun-11 08:28N 37°25' E 025°19'0 0.0
2017-Jun-11 07:58N 37°25' E 025°19'0 0.0
2017-Jun-11 07:25N 37°25' E 025°19'0 0.0
2017-Jun-11 06:58N 37°25' E 025°19'0 0.0
2017-Jun-11 06:28N 37°25' E 025°19'0 0.0
2017-Jun-11 05:58N 37°25' E 025°19'0 0.0
2017-Jun-11 05:28N 37°25' E 025°19'0 0.0
2017-Jun-11 04:58N 37°25' E 025°19'0 0.0
2017-Jun-11 04:28N 37°25' E 025°19'0 0.0
2017-Jun-11 03:58N 37°25' E 025°19'0 0.0
2017-Jun-11 03:28N 37°25' E 025°19'0 0.0
2017-Jun-11 02:58N 37°25' E 025°19'0 0.0
2017-Jun-11 02:28N 37°25' E 025°19'0 0.0
2017-Jun-11 01:58N 37°25' E 025°19'0 0.0
2017-Jun-11 01:28N 37°25' E 025°19'0 0.0
2017-Jun-11 00:58N 37°25' E 025°19'0 0.0
2017-Jun-11 00:25N 37°25' E 025°19'0 0.0
2017-Jun-10 23:58N 37°25' E 025°19'0 0.0
2017-Jun-10 23:28N 37°25' E 025°19'0 0.0
2017-Jun-10 22:58N 37°25' E 025°19'0 0.0
2017-Jun-10 22:28N 37°25' E 025°19'0 0.0
2017-Jun-10 21:58N 37°25' E 025°19'0 0.0
2017-Jun-10 21:28N 37°25' E 025°19'0 0.0
2017-Jun-10 20:58N 37°25' E 025°19'0 0.0
2017-Jun-10 20:28N 37°25' E 025°19'0 0.0
2017-Jun-10 19:58N 37°25' E 025°19'0 0.0
2017-Jun-10 19:25N 37°25' E 025°19'0 0.0
2017-Jun-10 18:58N 37°25' E 025°19'0 0.0
2017-Jun-10 18:28N 37°25' E 025°19'0 0.0
2017-Jun-10 17:58N 37°25' E 025°19'0 0.0
2017-Jun-10 17:28N 37°25' E 025°19'0 0.0
2017-Jun-10 16:58N 37°25' E 025°19'0 0.0
2017-Jun-10 16:28N 37°25' E 025°19'0 0.0
2017-Jun-10 15:58N 37°25' E 025°19'0 0.0
2017-Jun-10 15:28N 37°25' E 025°19'0 0.0
2017-Jun-10 14:55N 37°25' E 025°19'0 0.0
2017-Jun-10 13:58N 37°25' E 025°19'0 0.0
2017-Jun-10 13:28N 37°25' E 025°19'0 0.0
2017-Jun-10 12:58N 37°25' E 025°19'0 0.0
2017-Jun-10 12:28N 37°25' E 025°19'0 0.0
2017-Jun-10 11:58N 37°25' E 025°19'0 0.0
2017-Jun-10 11:28N 37°25' E 025°19'0 0.0
2017-Jun-10 10:58N 37°25' E 025°19'0 0.0
2017-Jun-10 10:28N 37°25' E 025°19'0 0.0
2017-Jun-10 09:58N 37°25' E 025°19'0 0.0
2017-Jun-10 09:25N 37°25' E 025°19'0 0.0
2017-Jun-10 08:55N 37°25' E 025°19'0 0.0
2017-Jun-10 08:28N 37°25' E 025°19'0 0.0
2017-Jun-10 07:58N 37°25' E 025°19'0 0.0
2017-Jun-10 07:28N 37°25' E 025°19'0 0.0
2017-Jun-10 06:58N 37°25' E 025°19'0 0.0
2017-Jun-10 06:28N 37°25' E 025°19'0 0.0
2017-Jun-10 05:58N 37°25' E 025°19'0 0.0
2017-Jun-10 05:28N 37°25' E 025°19'0 0.0
2017-Jun-10 04:58N 37°25' E 025°19'0 0.0
2017-Jun-10 04:28N 37°25' E 025°19'0 0.0
2017-Jun-10 03:58N 37°25' E 025°19'0 0.0
2017-Jun-10 03:28N 37°25' E 025°19'0 0.0
2017-Jun-10 02:55N 37°25' E 025°19'0 0.0
2017-Jun-10 02:28N 37°25' E 025°19'0 0.0
2017-Jun-10 01:55N 37°25' E 025°19'0 0.0
2017-Jun-10 01:25N 37°25' E 025°19'0 0.0
2017-Jun-10 00:58N 37°25' E 025°19'0 0.0
2017-Jun-10 00:25N 37°25' E 025°19'0 0.0
2017-Jun-09 23:58N 37°25' E 025°19'0 0.0
2017-Jun-09 23:28N 37°25' E 025°19'0 0.0
2017-Jun-09 22:58N 37°25' E 025°19'0 0.0
2017-Jun-09 22:28N 37°25' E 025°19'0 0.0
2017-Jun-09 21:58N 37°25' E 025°19'0 0.0
2017-Jun-09 21:28N 37°25' E 025°19'0 0.0
2017-Jun-09 20:58N 37°25' E 025°19'0 0.0
2017-Jun-09 20:28N 37°25' E 025°19'0 0.0
2017-Jun-09 19:58N 37°25' E 025°19'0 0.0
2017-Jun-09 19:28N 37°25' E 025°19'0 0.0
2017-Jun-09 18:58N 37°25' E 025°19'0 0.0
2017-Jun-09 18:28N 37°25' E 025°19'0 0.0
2017-Jun-09 17:58N 37°25' E 025°19'0 0.0
2017-Jun-09 17:28N 37°25' E 025°19'0 0.0
2017-Jun-09 16:58N 37°25' E 025°19'0 0.0
2017-Jun-09 16:28N 37°25' E 025°19'0 0.0
2017-Jun-09 15:58N 37°25' E 025°19'0 0.0
2017-Jun-09 15:28N 37°25' E 025°19'0 0.0
2017-Jun-09 14:58N 37°25' E 025°19'0 0.0
2017-Jun-09 14:28N 37°25' E 025°19'0 0.0
2017-Jun-09 13:25N 37°25' E 025°19'0 0.0
2017-Jun-09 12:55N 37°25' E 025°19'0 0.0
2017-Jun-09 12:28N 37°25' E 025°19'0 0.0
2017-Jun-09 11:58N 37°25' E 025°19'0 0.0
2017-Jun-09 11:28N 37°25' E 025°19'0 0.0
2017-Jun-09 10:58N 37°25' E 025°19'0 0.0
2017-Jun-09 10:28N 37°25' E 025°19'0 0.0
2017-Jun-09 09:59N 37°25' E 025°19'0 0.0
2017-Jun-09 09:29N 37°25' E 025°19'0 0.0
2017-Jun-09 08:56N 37°25' E 025°19'0 0.0
2017-Jun-09 08:29N 37°25' E 025°19'0 0.0
2017-Jun-09 07:59N 37°25' E 025°19'0 0.0
2017-Jun-09 07:29N 37°25' E 025°19'0 0.0
2017-Jun-09 06:59N 37°25' E 025°19'0 0.0
2017-Jun-09 06:29N 37°25' E 025°19'0 0.0
2017-Jun-09 05:59N 37°25' E 025°19'0 0.0
2017-Jun-09 05:26N 37°25' E 025°19'0 0.0
2017-Jun-09 04:59N 37°25' E 025°19'0 0.0
2017-Jun-09 04:29N 37°25' E 025°19'0 0.0
2017-Jun-09 03:59N 37°25' E 025°19'0 0.0
2017-Jun-09 03:29N 37°25' E 025°19'0 0.0
2017-Jun-09 02:59N 37°25' E 025°19'0 0.0
2017-Jun-09 02:29N 37°25' E 025°19'0 0.0
2017-Jun-09 01:59N 37°25' E 025°19'0 0.0
2017-Jun-09 01:29N 37°25' E 025°19'0 0.0
2017-Jun-09 00:59N 37°25' E 025°19'0 0.0
2017-Jun-09 00:29N 37°25' E 025°19'0 0.0
2017-Jun-08 23:59N 37°25' E 025°19'0 0.0
2017-Jun-08 23:29N 37°25' E 025°19'0 0.0
2017-Jun-08 22:59N 37°25' E 025°19'0 0.0
2017-Jun-08 22:29N 37°25' E 025°19'0 0.0
2017-Jun-08 21:59N 37°25' E 025°19'0 0.0
2017-Jun-08 21:23N 37°25' E 025°19'0 0.0
2017-Jun-08 20:59N 37°25' E 025°19'0 0.0
2017-Jun-08 20:29N 37°25' E 025°19'0 0.0
2017-Jun-08 19:59N 37°25' E 025°19'0 0.0
2017-Jun-08 19:29N 37°25' E 025°19'0 0.0
2017-Jun-08 18:59N 37°25' E 025°19'0 0.0
2017-Jun-08 18:29N 37°25' E 025°19'0 0.0
2017-Jun-08 17:59N 37°25' E 025°19'0 0.0
2017-Jun-08 17:29N 37°25' E 025°19'0 0.0
2017-Jun-08 16:59N 37°25' E 025°19'0 0.0
2017-Jun-08 16:29N 37°25' E 025°19'0 0.0
2017-Jun-08 15:59N 37°25' E 025°19'0 0.0
2017-Jun-08 15:29N 37°25' E 025°19'0 0.0
2017-Jun-08 14:59N 37°25' E 025°19'0 0.0
2017-Jun-08 14:29N 37°25' E 025°19'0 0.0
2017-Jun-08 13:29N 37°25' E 025°19'0 0.0
2017-Jun-08 12:59N 37°25' E 025°19'0 0.1
2017-Jun-08 12:30N 37°25' E 025°19'4 8.3
2017-Jun-08 12:01N 37°22' E 025°16'612.0
2017-Jun-08 11:31N 37°22' E 025°09'612.0
2017-Jun-08 11:00N 37°22' E 025°01'612.1
2017-Jun-08 10:30N 37°22' E 024°53'612.1
2017-Jun-08 10:01N 37°23' E 024°46'  
Track history (hours):
 
Tides and Currents Weather Stations Pressure Air Temp Water Temp Dewpoint Dewpoint Depression Visibility Wind Speed Wind Dir Waves Ship Positions

Fivea

Last reported at 2017-Jun-18 09:33 UTC. Time now 2017-Jun-27 07:00 UTC.
Position N 37°48' E 023°46'.
Warning: this ship's position is 8 days out of date.

Length 45 m; draft 3.8 m.

Type: Other ship. MMSI: 235092742.

Date/timePositionNaut miles runAvg speedWind from/ knotsBaromVisibWave heightAir tempDewpointWater temp
2017-Jun-18 09:33N 37°48' E 023°46'0 0.4
2017-Jun-18 09:30N 37°48' E 023°46'4 8.8
2017-Jun-18 09:01N 37°45' E 023°49'612.4
2017-Jun-18 08:30N 37°39' E 023°54'4 0.1
2017-Jun-16 09:19N 37°37' E 023°58'413.0
2017-Jun-16 09:00N 37°40' E 023°55'612.8
2017-Jun-16 08:30N 37°45' E 023°50'4 7.6
2017-Jun-16 07:56N 37°48' E 023°46'0 0.0
2017-Jun-16 07:29N 37°48' E 023°46'0 0.0
2017-Jun-16 06:59N 37°48' E 023°46'0 0.0
2017-Jun-16 06:29N 37°48' E 023°46'0 0.0
2017-Jun-16 05:59N 37°48' E 023°46'  
2017-Jun-11 21:09N 37°48' E 023°46'0 0.0
2017-Jun-11 20:57N 37°48' E 023°46'2 3.6
2017-Jun-11 20:31N 37°47' E 023°48'612.6
2017-Jun-11 20:00N 37°42' E 023°53'1012.2
2017-Jun-11 19:13N 37°36' E 024°02'712.7
2017-Jun-11 18:40N 37°33' E 024°10'2812.5
2017-Jun-11 16:25N 37°24' E 024°44'512.6
2017-Jun-11 16:01N 37°22' E 024°50'612.6
2017-Jun-11 15:31N 37°21' E 024°58'713.2
2017-Jun-11 15:01N 37°21' E 025°06'713.0
2017-Jun-11 14:30N 37°22' E 025°14'5 5.0
2017-Jun-11 13:28N 37°25' E 025°19'0 0.0
2017-Jun-11 12:58N 37°25' E 025°19'0 0.0
2017-Jun-11 12:28N 37°25' E 025°19'0 0.0
2017-Jun-11 11:58N 37°25' E 025°19'0 0.0
2017-Jun-11 11:25N 37°25' E 025°19'0 0.0
2017-Jun-11 10:58N 37°25' E 025°19'0 0.0
2017-Jun-11 10:28N 37°25' E 025°19'0 0.0
2017-Jun-11 09:58N 37°25' E 025°19'0 0.0
2017-Jun-11 09:28N 37°25' E 025°19'0 0.0
2017-Jun-11 08:58N 37°25' E 025°19'0 0.0
2017-Jun-11 08:28N 37°25' E 025°19'0 0.0
2017-Jun-11 07:58N 37°25' E 025°19'0 0.0
2017-Jun-11 07:25N 37°25' E 025°19'0 0.0
2017-Jun-11 06:58N 37°25' E 025°19'0 0.0
2017-Jun-11 06:28N 37°25' E 025°19'0 0.0
2017-Jun-11 05:58N 37°25' E 025°19'0 0.0
2017-Jun-11 05:28N 37°25' E 025°19'0 0.0
2017-Jun-11 04:58N 37°25' E 025°19'0 0.0
2017-Jun-11 04:28N 37°25' E 025°19'0 0.0
2017-Jun-11 03:58N 37°25' E 025°19'0 0.0
2017-Jun-11 03:28N 37°25' E 025°19'0 0.0
2017-Jun-11 02:58N 37°25' E 025°19'0 0.0
2017-Jun-11 02:28N 37°25' E 025°19'0 0.0
2017-Jun-11 01:58N 37°25' E 025°19'0 0.0
2017-Jun-11 01:28N 37°25' E 025°19'0 0.0
2017-Jun-11 00:58N 37°25' E 025°19'0 0.0
2017-Jun-11 00:25N 37°25' E 025°19'0 0.0
2017-Jun-10 23:58N 37°25' E 025°19'0 0.0
2017-Jun-10 23:28N 37°25' E 025°19'0 0.0
2017-Jun-10 22:58N 37°25' E 025°19'0 0.0
2017-Jun-10 22:28N 37°25' E 025°19'0 0.0
2017-Jun-10 21:58N 37°25' E 025°19'0 0.0
2017-Jun-10 21:28N 37°25' E 025°19'0 0.0
2017-Jun-10 20:58N 37°25' E 025°19'0 0.0
2017-Jun-10 20:28N 37°25' E 025°19'0 0.0
2017-Jun-10 19:58N 37°25' E 025°19'0 0.0
2017-Jun-10 19:25N 37°25' E 025°19'0 0.0
2017-Jun-10 18:58N 37°25' E 025°19'0 0.0
2017-Jun-10 18:28N 37°25' E 025°19'0 0.0
2017-Jun-10 17:58N 37°25' E 025°19'0 0.0
2017-Jun-10 17:28N 37°25' E 025°19'0 0.0
2017-Jun-10 16:58N 37°25' E 025°19'0 0.0
2017-Jun-10 16:28N 37°25' E 025°19'0 0.0
2017-Jun-10 15:58N 37°25' E 025°19'0 0.0
2017-Jun-10 15:28N 37°25' E 025°19'0 0.0
2017-Jun-10 14:55N 37°25' E 025°19'0 0.0
2017-Jun-10 13:58N 37°25' E 025°19'0 0.0
2017-Jun-10 13:28N 37°25' E 025°19'0 0.0
2017-Jun-10 12:58N 37°25' E 025°19'0 0.0
2017-Jun-10 12:28N 37°25' E 025°19'0 0.0
2017-Jun-10 11:58N 37°25' E 025°19'0 0.0
2017-Jun-10 11:28N 37°25' E 025°19'0 0.0
2017-Jun-10 10:58N 37°25' E 025°19'0 0.0
2017-Jun-10 10:28N 37°25' E 025°19'0 0.0
2017-Jun-10 09:58N 37°25' E 025°19'0 0.0
2017-Jun-10 09:25N 37°25' E 025°19'0 0.0
2017-Jun-10 08:55N 37°25' E 025°19'0 0.0
2017-Jun-10 08:28N 37°25' E 025°19'0 0.0
2017-Jun-10 07:58N 37°25' E 025°19'0 0.0
2017-Jun-10 07:28N 37°25' E 025°19'0 0.0
2017-Jun-10 06:58N 37°25' E 025°19'0 0.0
2017-Jun-10 06:28N 37°25' E 025°19'0 0.0
2017-Jun-10 05:58N 37°25' E 025°19'0 0.0
2017-Jun-10 05:28N 37°25' E 025°19'0 0.0
2017-Jun-10 04:58N 37°25' E 025°19'0 0.0
2017-Jun-10 04:28N 37°25' E 025°19'0 0.0
2017-Jun-10 03:58N 37°25' E 025°19'0 0.0
2017-Jun-10 03:28N 37°25' E 025°19'0 0.0
2017-Jun-10 02:55N 37°25' E 025°19'0 0.0
2017-Jun-10 02:28N 37°25' E 025°19'0 0.0
2017-Jun-10 01:55N 37°25' E 025°19'0 0.0
2017-Jun-10 01:25N 37°25' E 025°19'0 0.0
2017-Jun-10 00:58N 37°25' E 025°19'0 0.0
2017-Jun-10 00:25N 37°25' E 025°19'0 0.0
2017-Jun-09 23:58N 37°25' E 025°19'0 0.0
2017-Jun-09 23:28N 37°25' E 025°19'0 0.0
2017-Jun-09 22:58N 37°25' E 025°19'0 0.0
2017-Jun-09 22:28N 37°25' E 025°19'0 0.0
2017-Jun-09 21:58N 37°25' E 025°19'0 0.0
2017-Jun-09 21:28N 37°25' E 025°19'0 0.0
2017-Jun-09 20:58N 37°25' E 025°19'0 0.0
2017-Jun-09 20:28N 37°25' E 025°19'0 0.0
2017-Jun-09 19:58N 37°25' E 025°19'0 0.0
2017-Jun-09 19:28N 37°25' E 025°19'0 0.0
2017-Jun-09 18:58N 37°25' E 025°19'0 0.0
2017-Jun-09 18:28N 37°25' E 025°19'0 0.0
2017-Jun-09 17:58N 37°25' E 025°19'0 0.0
2017-Jun-09 17:28N 37°25' E 025°19'0 0.0
2017-Jun-09 16:58N 37°25' E 025°19'0 0.0
2017-Jun-09 16:28N 37°25' E 025°19'0 0.0
2017-Jun-09 15:58N 37°25' E 025°19'0 0.0
2017-Jun-09 15:28N 37°25' E 025°19'0 0.0
2017-Jun-09 14:58N 37°25' E 025°19'0 0.0
2017-Jun-09 14:28N 37°25' E 025°19'0 0.0
2017-Jun-09 13:25N 37°25' E 025°19'0 0.0
2017-Jun-09 12:55N 37°25' E 025°19'0 0.0
2017-Jun-09 12:28N 37°25' E 025°19'0 0.0
2017-Jun-09 11:58N 37°25' E 025°19'0 0.0
2017-Jun-09 11:28N 37°25' E 025°19'0 0.0
2017-Jun-09 10:58N 37°25' E 025°19'0 0.0
2017-Jun-09 10:28N 37°25' E 025°19'0 0.0
2017-Jun-09 09:59N 37°25' E 025°19'0 0.0
2017-Jun-09 09:29N 37°25' E 025°19'0 0.0
2017-Jun-09 08:56N 37°25' E 025°19'0 0.0
2017-Jun-09 08:29N 37°25' E 025°19'0 0.0
2017-Jun-09 07:59N 37°25' E 025°19'0 0.0
2017-Jun-09 07:29N 37°25' E 025°19'0 0.0
2017-Jun-09 06:59N 37°25' E 025°19'0 0.0
2017-Jun-09 06:29N 37°25' E 025°19'0 0.0
2017-Jun-09 05:59N 37°25' E 025°19'0 0.0
2017-Jun-09 05:26N 37°25' E 025°19'0 0.0
2017-Jun-09 04:59N 37°25' E 025°19'0 0.0
2017-Jun-09 04:29N 37°25' E 025°19'0 0.0
2017-Jun-09 03:59N 37°25' E 025°19'0 0.0
2017-Jun-09 03:29N 37°25' E 025°19'0 0.0
2017-Jun-09 02:59N 37°25' E 025°19'0 0.0
2017-Jun-09 02:29N 37°25' E 025°19'0 0.0
2017-Jun-09 01:59N 37°25' E 025°19'0 0.0
2017-Jun-09 01:29N 37°25' E 025°19'0 0.0
2017-Jun-09 00:59N 37°25' E 025°19'0 0.0
2017-Jun-09 00:29N 37°25' E 025°19'0 0.0
2017-Jun-08 23:59N 37°25' E 025°19'0 0.0
2017-Jun-08 23:29N 37°25' E 025°19'0 0.0
2017-Jun-08 22:59N 37°25' E 025°19'0 0.0
2017-Jun-08 22:29N 37°25' E 025°19'0 0.0
2017-Jun-08 21:59N 37°25' E 025°19'0 0.0
2017-Jun-08 21:23N 37°25' E 025°19'0 0.0
2017-Jun-08 20:59N 37°25' E 025°19'0 0.0
2017-Jun-08 20:29N 37°25' E 025°19'0 0.0
2017-Jun-08 19:59N 37°25' E 025°19'0 0.0
2017-Jun-08 19:29N 37°25' E 025°19'0 0.0
2017-Jun-08 18:59N 37°25' E 025°19'0 0.0
2017-Jun-08 18:29N 37°25' E 025°19'0 0.0
2017-Jun-08 17:59N 37°25' E 025°19'0 0.0
2017-Jun-08 17:29N 37°25' E 025°19'0 0.0
2017-Jun-08 16:59N 37°25' E 025°19'0 0.0
2017-Jun-08 16:29N 37°25' E 025°19'0 0.0
2017-Jun-08 15:59N 37°25' E 025°19'0 0.0
2017-Jun-08 15:29N 37°25' E 025°19'0 0.0
2017-Jun-08 14:59N 37°25' E 025°19'0 0.0
2017-Jun-08 14:29N 37°25' E 025°19'0 0.0
2017-Jun-08 13:29N 37°25' E 025°19'0 0.0
2017-Jun-08 12:59N 37°25' E 025°19'0 0.1
2017-Jun-08 12:30N 37°25' E 025°19'4 8.3
2017-Jun-08 12:01N 37°22' E 025°16'612.0
2017-Jun-08 11:31N 37°22' E 025°09'612.0
2017-Jun-08 11:00N 37°22' E 025°01'612.1
2017-Jun-08 10:30N 37°22' E 024°53'612.1
2017-Jun-08 10:01N 37°23' E 024°46'  

Dump ship's entire track history